Time;durP1;ratioP1;P1;durP2;ratioP2;P2;SDS_P1;SDS_P2;PMS_P1;PMS_P2;Temp;Humidity;BMP_temperature;BMP_pressure;BME280_temperature;BME280_humidity;BME280_pressure;Samples;Min_cycle;Max_cycle;Signal;HPM_P1;HPM_P2
2023/12/16 00:00:28;;;;;;;11.30;10.10;;;;;;;6.74;93.95;97765.41;5091972;28;20196;-87
2023/12/16 00:02:54;;;;;;;10.70;9.60;;;;;;;6.73;93.99;97768.09;5084663;28;20208;-87
2023/12/16 00:05:23;;;;;;;11.77;9.17;;;;;;;6.78;93.43;97761.72;5086021;28;20204;-85
2023/12/16 00:07:49;;;;;;;10.47;9.33;;;;;;;6.81;93.70;97765.84;5091901;28;20220;-84
2023/12/16 00:10:17;;;;;;;11.37;9.80;;;;;;;6.80;93.37;97767.56;5092815;28;20213;-85
2023/12/16 00:12:44;;;;;;;11.77;10.13;;;;;;;6.84;93.34;97778.44;5093055;28;20208;-84
2023/12/16 00:15:11;;;;;;;14.17;10.13;;;;;;;6.82;93.74;97775.16;5092040;28;20200;-85
2023/12/16 00:17:37;;;;;;;11.63;10.10;;;;;;;6.73;93.79;97786.81;5090879;28;20224;-85
2023/12/16 00:20:04;;;;;;;11.57;9.67;;;;;;;6.67;94.28;97787.22;5091044;28;20676;-88
2023/12/16 00:22:31;;;;;;;11.20;10.00;;;;;;;6.67;94.53;97794.88;5090894;28;20195;-87
2023/12/16 00:24:58;;;;;;;11.27;9.17;;;;;;;6.67;94.32;97787.22;5091880;28;20291;-86
2023/12/16 00:27:26;;;;;;;10.27;9.27;;;;;;;6.65;94.41;97788.22;5072789;28;20200;-86
2023/12/16 00:29:52;;;;;;;12.23;9.77;;;;;;;6.68;93.95;97781.19;5071416;28;20223;-85
2023/12/16 00:32:19;;;;;;;11.53;9.70;;;;;;;6.72;93.49;97774.13;5072860;28;20219;-85
2023/12/16 00:34:45;;;;;;;16.87;9.80;;;;;;;6.73;93.37;97781.72;5083329;28;20215;-85
2023/12/16 00:37:12;;;;;;;10.77;9.27;;;;;;;6.78;93.09;97769.41;5088221;28;20200;-85
2023/12/16 00:39:39;;;;;;;11.53;9.40;;;;;;;6.83;92.45;97751.19;5092631;28;20201;-86
2023/12/16 00:42:05;;;;;;;11.67;9.50;;;;;;;6.83;91.95;97740.94;5092180;28;20214;-86
2023/12/16 00:44:34;;;;;;;9.80;8.70;;;;;;;6.80;91.92;97748.84;5091716;28;20207;-85
2023/12/16 00:47:01;;;;;;;11.00;9.03;;;;;;;6.83;91.72;97743.50;5083903;28;20204;-84
2023/12/16 00:49:28;;;;;;;10.83;9.03;;;;;;;6.85;91.34;97744.25;5091348;28;20208;-85
2023/12/16 00:51:55;;;;;;;11.97;9.73;;;;;;;6.89;91.56;97754.19;5089355;28;20204;-84
2023/12/16 00:54:22;;;;;;;10.40;8.83;;;;;;;6.92;91.48;97751.44;5091343;28;20196;-85
2023/12/16 00:56:49;;;;;;;10.57;9.10;;;;;;;6.95;91.27;97750.38;5084294;28;20200;-86
2023/12/16 00:59:16;;;;;;;11.90;9.47;;;;;;;6.90;91.28;97752.44;5070644;28;20311;-86
2023/12/16 01:01:43;;;;;;;11.63;9.43;;;;;;;6.91;91.20;97756.66;5071718;28;20208;-85
2023/12/16 01:04:10;;;;;;;10.80;9.37;;;;;;;6.89;90.83;97753.38;5071410;28;20800;-85
2023/12/16 01:06:36;;;;;;;11.53;9.73;;;;;;;6.93;90.73;97752.22;5074403;28;20204;-85
2023/12/16 01:09:03;;;;;;;11.90;9.60;;;;;;;6.96;90.75;97751.22;5090051;28;20216;-84
2023/12/16 01:11:30;;;;;;;10.83;9.13;;;;;;;6.97;90.75;97755.41;5091634;28;20208;-85
2023/12/16 01:13:56;;;;;;;10.30;9.10;;;;;;;6.97;90.34;97753.66;5091404;28;20204;-85
2023/12/16 01:16:22;;;;;;;10.70;9.20;;;;;;;6.99;90.22;97753.56;5091304;28;20199;-84
2023/12/16 01:18:50;;;;;;;10.00;8.97;;;;;;;7.00;89.91;97755.22;5090576;28;20234;-85
2023/12/16 01:21:17;;;;;;;12.00;9.00;;;;;;;7.01;90.39;97750.00;5094860;28;20192;-85
2023/12/16 01:23:44;;;;;;;11.93;8.80;;;;;;;6.96;90.01;97746.09;5089245;28;20613;-85
2023/12/16 01:26:11;;;;;;;9.70;8.53;;;;;;;6.92;90.21;97758.28;5079624;28;20572;-85
2023/12/16 01:28:37;;;;;;;10.80;9.50;;;;;;;6.91;90.43;97749.78;5070169;28;20223;-85
2023/12/16 01:31:04;;;;;;;10.33;8.90;;;;;;;6.91;90.45;97749.78;5071267;28;20212;-85
2023/12/16 01:33:32;;;;;;;10.30;9.00;;;;;;;6.90;90.62;97752.44;5070623;28;20193;-85
2023/12/16 01:36:00;;;;;;;9.87;8.73;;;;;;;6.91;90.70;97754.09;5070088;28;20209;-85
2023/12/16 01:38:50;;;;;;;10.53;9.00;;;;;;;6.87;90.56;97745.78;5087640;28;20227;-85
2023/12/16 01:41:17;;;;;;;9.77;8.73;;;;;;;6.79;90.76;97750.56;5090519;28;20200;-85
2023/12/16 01:43:43;;;;;;;11.53;8.57;;;;;;;6.71;91.54;97762.25;5082715;28;20339;-85
2023/12/16 01:46:10;;;;;;;10.87;9.43;;;;;;;6.67;91.90;97787.22;5090296;28;20227;-85
2023/12/16 01:48:36;;;;;;;12.10;9.17;;;;;;;6.66;92.24;97795.81;5090061;28;20231;-85
2023/12/16 01:51:05;;;;;;;12.47;9.27;;;;;;;6.65;92.29;97801.84;5071339;28;20220;-85
2023/12/16 01:53:33;;;;;;;11.03;8.83;;;;;;;6.69;92.21;97794.78;5070645;28;20201;-85
2023/12/16 01:56:00;;;;;;;12.83;8.83;;;;;;;6.69;92.24;97792.25;5072266;28;20610;-85
2023/12/16 01:58:26;;;;;;;10.33;9.23;;;;;;;6.71;92.02;97780.97;5084694;28;20239;-84
2023/12/16 02:00:53;;;;;;;9.17;8.20;;;;;;;6.74;92.23;97790.19;5091722;28;20207;-86
2023/12/16 02:03:20;;;;;;;10.40;8.70;;;;;;;6.74;91.99;97787.63;5099430;28;20199;-86
2023/12/16 02:05:47;;;;;;;10.53;9.13;;;;;;;6.73;91.91;97797.06;5102818;28;20622;-85
2023/12/16 02:08:15;;;;;;;9.90;8.83;;;;;;;6.71;91.81;97793.78;5094810;28;20216;-85
2023/12/16 02:10:41;;;;;;;9.23;8.33;;;;;;;6.70;92.19;97801.56;5091798;28;20197;-85
2023/12/16 02:13:08;;;;;;;8.80;7.90;;;;;;;6.71;92.11;97804.03;5094215;28;20653;-85
2023/12/16 02:15:34;;;;;;;10.67;8.23;;;;;;;6.73;91.97;97809.06;5087687;28;20200;-85
2023/12/16 02:18:01;;;;;;;9.03;8.13;;;;;;;6.66;91.99;97810.34;5093471;28;20312;-85
2023/12/16 02:20:27;;;;;;;9.30;7.90;;;;;;;6.71;92.14;97818.56;5073543;28;20556;-85
2023/12/16 02:22:55;;;;;;;10.30;8.00;;;;;;;6.77;92.10;97815.59;5073674;28;20201;-85
2023/12/16 02:25:23;;;;;;;8.90;7.73;;;;;;;6.68;92.73;97819.56;5082057;28;20216;-85
2023/12/16 02:27:49;;;;;;;9.10;7.50;;;;;;;6.74;92.42;97815.78;5092038;28;20600;-88
2023/12/16 02:30:15;;;;;;;8.40;7.17;;;;;;;6.73;92.45;97814.16;5093182;28;20196;-86
2023/12/16 02:32:42;;;;;;;8.50;7.67;;;;;;;6.72;92.80;97812.53;5091300;28;20193;-86
2023/12/16 02:35:09;;;;;;;8.87;7.90;;;;;;;6.64;93.02;97820.69;5093506;28;20200;-86
2023/12/16 02:37:35;;;;;;;9.10;7.90;;;;;;;6.64;93.22;97832.66;5094035;28;20564;-85
2023/12/16 02:40:03;;;;;;;9.77;7.97;;;;;;;6.62;93.97;97839.59;5085314;28;20227;-85
2023/12/16 02:42:31;;;;;;;8.23;7.33;;;;;;;6.66;93.42;97838.50;5093161;28;20200;-84
2023/12/16 02:44:57;;;;;;;9.13;7.77;;;;;;;6.58;93.84;97839.78;5087198;28;20665;-85
2023/12/16 02:47:24;;;;;;;8.57;7.67;;;;;;;6.53;94.56;97854.66;5093443;28;20417;-85
2023/12/16 02:49:50;;;;;;;9.27;8.03;;;;;;;6.51;94.28;97853.91;5092029;28;20200;-85
2023/12/16 02:52:17;;;;;;;9.27;7.93;;;;;;;6.52;94.52;97862.41;5093341;28;20215;-85
2023/12/16 02:54:43;;;;;;;10.10;8.17;;;;;;;6.48;94.70;97846.41;5092869;28;20662;-84
2023/12/16 02:57:09;;;;;;;9.47;8.17;;;;;;;6.39;95.32;97844.41;5093186;28;20204;-85
2023/12/16 02:59:37;;;;;;;9.60;8.57;;;;;;;6.40;95.60;97855.47;5090765;28;20227;-85
2023/12/16 03:02:04;;;;;;;9.63;8.57;;;;;;;6.34;96.17;97861.00;5094101;28;20197;-85
2023/12/16 03:04:30;;;;;;;9.67;8.60;;;;;;;6.32;96.93;97886.66;5092242;28;20196;-85
2023/12/16 03:06:57;;;;;;;10.63;7.87;;;;;;;6.35;96.56;97881.34;5093853;28;20268;-85
2023/12/16 03:09:23;;;;;;;9.87;8.20;;;;;;;6.38;96.35;97886.28;5092604;28;20218;-85
2023/12/16 03:11:50;;;;;;;9.67;8.53;;;;;;;6.40;96.61;97883.63;5093002;28;20770;-86
2023/12/16 03:14:17;;;;;;;11.57;8.87;;;;;;;6.36;96.36;97884.72;5093241;28;20602;-85
2023/12/16 03:16:45;;;;;;;10.90;8.50;;;;;;;6.41;96.28;97886.09;5090824;28;20200;-87
2023/12/16 03:19:11;;;;;;;9.83;8.37;;;;;;;6.41;96.34;97890.38;5092140;28;20310;-86
2023/12/16 03:21:38;;;;;;;10.83;8.23;;;;;;;6.37;96.61;97892.31;5089719;28;20189;-86
2023/12/16 03:24:05;;;;;;;8.83;7.93;;;;;;;6.43;96.29;97886.81;5091571;28;20207;-85
2023/12/16 03:26:31;;;;;;;10.97;8.47;;;;;;;6.37;96.72;97887.19;5091795;28;20204;-86
2023/12/16 03:28:58;;;;;;;10.77;8.60;;;;;;;6.35;97.12;97890.78;5091875;28;20220;-88
2023/12/16 03:31:24;;;;;;;9.40;8.40;;;;;;;6.31;97.38;97902.94;5086889;28;20196;-85
2023/12/16 03:33:53;;;;;;;9.77;8.07;;;;;;;6.36;96.95;97907.75;5091750;28;20584;-86
2023/12/16 03:36:19;;;;;;;9.17;8.17;;;;;;;6.42;96.52;97915.88;5078709;28;20244;-86
2023/12/16 03:38:45;;;;;;;11.30;8.53;;;;;;;6.48;96.15;97897.59;5091529;28;20220;-86
2023/12/16 03:41:12;;;;;;;9.43;8.13;;;;;;;6.49;95.74;97894.13;5095685;28;20201;-86
2023/12/16 03:43:39;;;;;;;10.07;8.37;;;;;;;6.50;95.63;97894.94;5092484;28;20718;-85
2023/12/16 03:46:07;;;;;;;11.03;8.90;;;;;;;6.52;95.30;97888.84;5091896;28;20204;-84
2023/12/16 03:48:34;;;;;;;10.63;8.53;;;;;;;6.56;95.25;97892.81;5090031;28;20215;-85
2023/12/16 03:51:02;;;;;;;10.07;8.53;;;;;;;6.59;94.92;97876.44;5092744;28;20195;-85
2023/12/16 03:53:28;;;;;;;9.53;8.50;;;;;;;6.63;94.98;97874.53;5092770;28;20219;-85
2023/12/16 03:55:54;;;;;;;9.23;8.30;;;;;;;6.66;94.72;97866.66;5086973;28;20211;-85
2023/12/16 03:58:21;;;;;;;9.93;8.83;;;;;;;6.61;94.45;97866.13;5091610;28;20224;-84
2023/12/16 04:00:47;;;;;;;11.37;8.57;;;;;;;6.63;94.33;97861.72;5092035;28;20211;-85
2023/12/16 04:03:14;;;;;;;9.63;8.30;;;;;;;6.62;94.20;97860.09;5090409;28;20207;-86
2023/12/16 04:05:42;;;;;;;10.70;9.20;;;;;;;6.62;94.23;97868.59;5090947;28;20697;-87
2023/12/16 04:08:10;;;;;;;12.10;8.63;;;;;;;6.65;94.25;97872.69;5085106;28;20223;-86
2023/12/16 04:10:36;;;;;;;10.63;8.50;;;;;;;6.62;94.47;97871.16;5071292;28;20325;-86
2023/12/16 04:13:03;;;;;;;9.93;8.57;;;;;;;6.62;94.46;97872.88;5071458;28;20205;-86
2023/12/16 04:15:29;;;;;;;11.03;8.73;;;;;;;6.58;94.49;97874.81;5079494;28;20200;-87
2023/12/16 04:17:56;;;;;;;11.87;9.17;;;;;;;6.61;94.30;97876.34;5091807;28;20592;-86
2023/12/16 04:20:22;;;;;;;11.07;9.40;;;;;;;6.63;94.33;97877.09;5088492;28;20856;-86
2023/12/16 04:22:49;;;;;;;10.27;9.13;;;;;;;6.64;94.61;97881.28;5091389;28;20215;-86
2023/12/16 04:25:16;;;;;;;11.83;8.90;;;;;;;6.61;94.43;97881.47;5078492;28;20208;-86
2023/12/16 04:27:43;;;;;;;10.87;9.33;;;;;;;6.63;94.24;97877.91;5071703;28;20220;-87
2023/12/16 04:30:10;;;;;;;10.07;8.60;;;;;;;6.66;94.14;97875.16;5081403;28;20564;-86
2023/12/16 04:32:37;;;;;;;10.23;8.63;;;;;;;6.63;94.38;97872.78;5080307;28;20188;-85
2023/12/16 04:35:04;;;;;;;10.47;8.80;;;;;;;6.59;94.48;97877.28;5081479;28;20193;-85
2023/12/16 04:37:31;;;;;;;10.57;9.27;;;;;;;6.64;94.46;97878.72;5087557;28;20200;-85
2023/12/16 04:39:57;;;;;;;12.37;9.57;;;;;;;6.64;94.25;97878.72;5090724;28;20231;-85
2023/12/16 04:42:25;;;;;;;11.30;9.30;;;;;;;6.60;94.62;97867.84;5086416;28;20681;-85
2023/12/16 04:44:55;;;;;;;12.13;9.83;;;;;;;6.45;95.20;97866.25;5078977;28;20203;-85
2023/12/16 04:47:22;;;;;;;11.77;9.83;;;;;;;6.44;95.72;97869.72;5091110;28;20226;-86
2023/12/16 04:49:48;;;;;;;12.33;9.87;;;;;;;6.48;95.49;97872.00;5080860;28;20215;-86
2023/12/16 04:52:15;;;;;;;12.87;10.33;;;;;;;6.48;95.42;97883.97;5075692;28;20204;-85
2023/12/16 04:54:41;;;;;;;11.70;9.30;;;;;;;6.50;95.26;97882.16;5082317;28;20193;-85
2023/12/16 04:57:08;;;;;;;12.67;10.10;;;;;;;6.48;95.27;97876.31;5071583;28;20216;-85
2023/12/16 04:59:35;;;;;;;12.47;10.20;;;;;;;6.54;95.20;97889.53;5059244;23;20914;-86
2023/12/16 05:02:02;;;;;;;12.50;9.97;;;;;;;6.58;94.95;97895.28;5039687;28;20233;-86
2023/12/16 05:04:28;;;;;;;11.67;9.43;;;;;;;6.61;94.61;97895.09;5050536;28;20247;-86
2023/12/16 05:06:55;;;;;;;11.53;10.10;;;;;;;6.63;94.17;97898.38;5051306;28;20209;-86
2023/12/16 05:09:21;;;;;;;12.93;9.90;;;;;;;6.59;94.34;97902.06;5048530;28;20220;-85
2023/12/16 05:11:48;;;;;;;13.77;10.30;;;;;;;6.64;94.09;97905.16;5050966;28;20300;-86
2023/12/16 05:14:14;;;;;;;11.17;9.83;;;;;;;6.67;93.84;97899.03;5050920;28;20618;-85
2023/12/16 05:16:42;;;;;;;11.90;9.87;;;;;;;6.63;93.91;97895.00;5051404;28;20212;-84
2023/12/16 05:19:08;;;;;;;11.03;9.10;;;;;;;6.60;93.99;97896.00;5049926;28;20228;-85
2023/12/16 05:21:35;;;;;;;10.53;9.33;;;;;;;6.59;94.07;97897.75;5051071;28;20209;-86
2023/12/16 05:24:01;;;;;;;11.27;9.73;;;;;;;6.63;93.83;97900.13;5046388;28;20206;-85
2023/12/16 05:26:28;;;;;;;12.83;10.50;;;;;;;6.62;93.85;97896.75;5046019;28;20202;-85
2023/12/16 05:28:54;;;;;;;11.67;9.17;;;;;;;6.62;93.97;97899.31;5040758;28;20222;-86
2023/12/16 05:31:20;;;;;;;11.57;9.37;;;;;;;6.62;94.19;97904.44;5050594;28;20193;-85
2023/12/16 05:33:48;;;;;;;12.50;9.53;;;;;;;6.62;93.97;97911.28;5051402;28;20205;-87
2023/12/16 05:36:15;;;;;;;11.20;9.47;;;;;;;6.64;93.82;97917.13;5050185;28;20797;-86
2023/12/16 05:38:41;;;;;;;11.27;9.70;;;;;;;6.64;93.89;97909.44;5050384;28;20233;-84
2023/12/16 05:41:08;;;;;;;11.90;9.90;;;;;;;6.62;93.72;97906.97;5038327;28;20259;-86
2023/12/16 05:43:35;;;;;;;11.13;9.47;;;;;;;6.61;94.00;97910.47;5054560;28;20209;-86
2023/12/16 05:46:01;;;;;;;10.47;9.37;;;;;;;6.61;93.88;97900.22;5054459;28;20202;-86
2023/12/16 05:48:28;;;;;;;11.53;9.90;;;;;;;6.59;93.86;97896.94;5053807;28;20221;-85
2023/12/16 05:50:56;;;;;;;11.63;9.73;;;;;;;6.57;94.19;97889.34;5078911;28;20193;-86
2023/12/16 05:53:23;;;;;;;11.30;9.53;;;;;;;6.57;94.08;97886.78;5069492;28;20202;-85
2023/12/16 05:55:49;;;;;;;10.77;9.13;;;;;;;6.56;94.34;97887.69;5054625;28;20896;-86
2023/12/16 05:58:15;;;;;;;11.13;9.20;;;;;;;6.53;94.25;97885.34;5051222;28;20313;-86
2023/12/16 06:00:42;;;;;;;11.33;9.23;;;;;;;6.49;94.78;97890.75;5053642;28;20221;-85
2023/12/16 06:03:08;;;;;;;11.07;9.63;;;;;;;6.52;94.61;97896.50;5054443;28;20209;-85
2023/12/16 06:05:35;;;;;;;10.60;8.70;;;;;;;6.56;94.65;97903.06;5051845;28;20217;-86
2023/12/16 06:08:03;;;;;;;13.37;9.30;;;;;;;6.57;94.40;97901.31;5040757;28;20222;-85
2023/12/16 06:10:30;;;;;;;10.07;8.93;;;;;;;6.58;94.24;97901.22;5034527;28;20202;-85
2023/12/16 06:12:56;;;;;;;11.57;9.10;;;;;;;6.58;94.35;97898.66;5040205;28;20224;-85
2023/12/16 06:15:23;;;;;;;10.30;8.67;;;;;;;6.54;94.11;97894.66;5053321;28;20468;-86
2023/12/16 06:17:49;;;;;;;9.83;8.60;;;;;;;6.51;93.93;97894.88;5056169;28;20218;-85
2023/12/16 06:20:16;;;;;;;10.03;8.60;;;;;;;6.54;93.81;97886.97;5054480;28;20229;-84
2023/12/16 06:22:43;;;;;;;11.07;9.07;;;;;;;6.55;93.95;97887.78;5053508;28;20201;-85
2023/12/16 06:25:10;;;;;;;10.23;8.80;;;;;;;6.52;93.82;97893.94;5047600;28;20289;-86
2023/12/16 06:27:38;;;;;;;10.80;8.63;;;;;;;6.50;94.23;97900.06;5055157;28;20205;-86
2023/12/16 06:30:06;;;;;;;9.53;8.53;;;;;;;6.50;94.31;97898.34;5056966;28;20201;-85
2023/12/16 06:32:32;;;;;;;9.53;8.47;;;;;;;6.52;94.08;97901.63;5052826;28;20580;-85
2023/12/16 06:34:59;;;;;;;10.20;9.00;;;;;;;6.53;93.84;97902.44;5054184;28;20713;-85
2023/12/16 06:37:26;;;;;;;11.33;9.23;;;;;;;6.47;93.93;97890.03;5054396;28;20197;-85
2023/12/16 06:39:52;;;;;;;10.73;8.70;;;;;;;6.46;93.91;97901.16;5051014;28;20221;-85
2023/12/16 06:42:20;;;;;;;10.17;8.67;;;;;;;6.44;94.26;97900.44;5054014;28;20602;-85
2023/12/16 06:44:47;;;;;;;10.10;8.73;;;;;;;6.38;94.24;97914.41;5050211;28;20209;-85
2023/12/16 06:47:13;;;;;;;9.37;8.37;;;;;;;6.45;93.99;97923.38;5053210;28;20210;-85
2023/12/16 06:49:39;;;;;;;10.67;8.47;;;;;;;6.52;93.85;97918.72;5061522;28;20209;-86
2023/12/16 06:52:06;;;;;;;11.50;8.57;;;;;;;6.52;93.61;97911.88;5073497;28;20205;-85
2023/12/16 06:54:33;;;;;;;9.30;8.20;;;;;;;6.52;93.55;97911.88;5054620;28;20197;-86
2023/12/16 06:56:59;;;;;;;10.60;8.83;;;;;;;6.51;93.45;97912.78;5054116;28;20204;-84
2023/12/16 06:59:27;;;;;;;9.10;8.17;;;;;;;6.51;93.58;97902.53;5054148;28;20217;-88
2023/12/16 07:01:53;;;;;;;10.57;8.47;;;;;;;6.51;93.48;97901.72;5054252;28;20208;-85
2023/12/16 07:04:24;;;;;;;10.07;8.90;;;;;;;6.46;93.71;97896.06;5052114;28;20667;-88
2023/12/16 07:06:50;;;;;;;9.93;8.93;;;;;;;6.42;93.47;97887.72;5051941;28;20198;-88
2023/12/16 07:09:17;;;;;;;9.77;7.80;;;;;;;6.42;93.86;97902.25;5035761;28;20557;-88
2023/12/16 07:11:43;;;;;;;9.40;8.37;;;;;;;6.45;93.74;97902.91;5032060;28;20209;-88
2023/12/16 07:14:10;;;;;;;9.07;8.17;;;;;;;6.47;93.05;97895.97;5031390;28;20210;-88
2023/12/16 07:16:38;;;;;;;10.13;8.60;;;;;;;6.50;92.89;97887.28;5031567;28;20289;-88
2023/12/16 07:22:01;;;;;;;20.30;14.77;;;;;;;6.36;95.56;97957.19;5043496;28;20205;-87
2023/12/16 07:24:28;;;;;;;17.33;12.40;;;;;;;6.34;96.62;97981.25;5044958;28;20201;-88
2023/12/16 07:26:54;;;;;;;14.40;11.07;;;;;;;6.31;96.24;97968.63;5050943;28;20201;-85
2023/12/16 07:29:21;;;;;;;13.60;10.77;;;;;;;6.47;95.65;97974.47;5050356;28;20232;-89
2023/12/16 07:31:50;;;;;;;11.00;8.80;;;;;;;6.58;94.36;97959.28;5052647;28;20213;-88
2023/12/16 07:34:17;;;;;;;9.97;7.83;;;;;;;6.67;93.67;97942.53;5045390;28;20206;-87
2023/12/16 07:36:45;;;;;;;9.27;8.27;;;;;;;6.71;92.22;97923.53;5048670;28;20189;-88
2023/12/16 07:39:26;;;;;;;8.43;7.53;;;;;;;6.75;91.50;97902.72;5050205;28;20232;-85
2023/12/16 07:41:53;;;;;;;10.53;8.67;;;;;;;6.78;91.03;97886.38;5050266;28;20203;-85
2023/12/16 07:44:19;;;;;;;8.43;7.13;;;;;;;6.78;90.81;97873.56;5050562;28;20197;-85
2023/12/16 07:46:46;;;;;;;8.70;7.80;;;;;;;6.71;90.42;97865.47;5050958;28;20721;-85
2023/12/16 07:49:13;;;;;;;8.67;7.50;;;;;;;6.72;90.01;97864.56;5049045;28;20733;-85
2023/12/16 07:51:40;;;;;;;10.13;7.47;;;;;;;6.72;90.48;97856.88;5050241;28;20197;-88
2023/12/16 07:54:06;;;;;;;8.90;7.83;;;;;;;6.65;89.96;97841.97;5050152;28;20201;-87
2023/12/16 07:56:33;;;;;;;9.07;8.00;;;;;;;6.63;90.47;97844.63;5069024;28;20193;-88
2023/12/16 07:59:00;;;;;;;8.47;7.60;;;;;;;6.68;90.08;97852.03;5070941;28;20224;-87
2023/12/16 08:01:27;;;;;;;8.50;7.60;;;;;;;6.72;89.99;97853.50;5042413;28;20225;-88
2023/12/16 08:03:53;;;;;;;8.43;7.57;;;;;;;6.73;89.33;97862.81;5030225;28;20205;-87
2023/12/16 08:06:21;;;;;;;10.57;8.20;;;;;;;6.77;89.12;97861.69;5039323;28;20656;-88
2023/12/16 08:08:47;;;;;;;8.63;7.43;;;;;;;6.80;89.32;97872.56;5034931;28;20833;-87
2023/12/16 08:11:18;;;;;;;8.53;7.10;;;;;;;6.81;88.97;97874.19;5033896;28;20190;-87
2023/12/16 08:13:48;;;;;;;10.60;9.03;;;;;;;6.86;90.07;97891.84;5037361;28;20671;-88
2023/12/16 08:16:19;;;;;;;11.20;9.77;;;;;;;6.88;88.85;97882.31;5022658;28;20545;-87
2023/12/16 08:18:46;;;;;;;9.83;7.63;;;;;;;6.86;88.44;97872.19;5029642;28;20216;-87
2023/12/16 08:21:13;;;;;;;9.90;7.30;;;;;;;6.88;88.39;97857.53;5033157;28;20272;-87
2023/12/16 08:23:40;;;;;;;8.00;7.07;;;;;;;6.82;88.04;97844.28;5044017;28;20224;-88
2023/12/16 08:26:10;;;;;;;8.90;6.87;;;;;;;6.75;88.61;97846.41;5032822;28;20201;-87
2023/12/16 08:28:37;;;;;;;7.67;6.60;;;;;;;6.78;88.45;97847.97;5025062;28;20272;-87
2023/12/16 08:31:04;;;;;;;9.33;8.23;;;;;;;6.81;88.80;97863.13;5025793;28;20570;-87
2023/12/16 08:33:31;;;;;;;8.03;7.23;;;;;;;6.81;88.36;97858.84;5048103;28;20259;-86
2023/12/16 08:35:57;;;;;;;8.00;7.00;;;;;;;6.81;87.94;97842.66;5055620;28;20202;-87
2023/12/16 08:38:24;;;;;;;8.47;6.97;;;;;;;6.80;88.46;97856.38;5050424;28;20232;-84
2023/12/16 08:40:53;;;;;;;10.50;7.73;;;;;;;6.83;88.83;97874.94;5065796;28;20229;-85
2023/12/16 08:43:19;;;;;;;8.33;7.40;;;;;;;6.88;88.71;97885.72;5056988;28;20197;-84
2023/12/16 08:45:46;;;;;;;7.83;6.70;;;;;;;6.92;88.40;97881.22;5061745;28;20209;-86
2023/12/16 08:48:12;;;;;;;8.63;7.70;;;;;;;6.95;88.07;97875.88;5062223;28;20209;-84
2023/12/16 08:50:39;;;;;;;8.90;7.50;;;;;;;6.97;88.28;97878.34;5076547;28;20193;-86
2023/12/16 08:53:14;;;;;;;8.70;7.80;;;;;;;7.01;89.58;97913.09;5064468;28;20228;-85
2023/12/16 08:55:44;;;;;;;11.57;8.00;;;;;;;7.01;89.00;97903.66;5067660;28;20232;-85
2023/12/16 08:58:12;;;;;;;9.43;7.77;;;;;;;7.06;88.57;97896.53;5064702;28;20223;-88
2023/12/16 09:00:44;;;;;;;9.17;7.27;;;;;;;7.03;87.75;97875.41;5060166;28;20229;-85
2023/12/16 09:03:13;;;;;;;9.07;7.77;;;;;;;7.01;87.33;97887.47;5060003;28;20197;-84
2023/12/16 09:05:39;;;;;;;12.93;9.83;;;;;;;7.06;87.57;97909.34;5059986;28;20209;-88
2023/12/16 09:08:14;;;;;;;8.90;7.67;;;;;;;7.09;88.71;97933.94;5049743;28;20233;-86
2023/12/16 09:10:40;;;;;;;9.23;7.30;;;;;;;7.11;87.97;97916.72;5042939;28;20685;-88
2023/12/16 09:13:07;;;;;;;7.43;6.63;;;;;;;7.11;87.20;97904.75;5039994;28;20190;-86
2023/12/16 09:15:34;;;;;;;8.00;7.00;;;;;;;7.13;87.10;97902.06;5049768;28;20208;-88
2023/12/16 09:18:01;;;;;;;11.00;7.93;;;;;;;7.16;87.18;97889.06;5052470;28;20713;-88
2023/12/16 09:20:37;;;;;;;8.20;7.30;;;;;;;7.16;86.91;97889.88;5035905;28;20720;-88
2023/12/16 09:23:04;;;;;;;7.73;6.40;;;;;;;7.13;86.53;97886.69;5032635;28;20205;-88
2023/12/16 09:25:30;;;;;;;7.67;6.87;;;;;;;7.10;86.53;97884.34;5026202;28;20236;-88
2023/12/16 09:27:58;;;;;;;7.30;6.53;;;;;;;7.08;86.76;97897.25;5055357;28;20239;-88
2023/12/16 09:30:24;;;;;;;9.23;7.77;;;;;;;7.08;86.95;97902.38;5053221;28;20236;-88
2023/12/16 09:33:00;;;;;;;8.03;7.20;;;;;;;7.04;87.85;97907.78;5052906;28;20296;-87
2023/12/16 09:35:27;;;;;;;7.70;6.90;;;;;;;7.04;87.69;97918.84;5051430;28;20197;-87
2023/12/16 09:37:54;;;;;;;9.03;7.23;;;;;;;7.39;87.82;97942.22;5051697;28;20239;-87
2023/12/16 09:40:22;;;;;;;8.40;7.20;;;;;;;7.93;87.21;97942.09;5051879;28;20217;-88
2023/12/16 09:42:51;;;;;;;8.60;6.53;;;;;;;8.11;83.47;97858.75;5050211;28;20787;-87
2023/12/16 09:45:20;;;;;;;8.10;7.03;;;;;;;8.22;82.68;97833.19;5051410;28;20205;-87
2023/12/16 09:47:47;;;;;;;8.40;6.93;;;;;;;8.25;81.92;97814.19;5051681;28;20198;-87
2023/12/16 09:50:15;;;;;;;8.00;6.57;;;;;;;8.37;80.98;97799.69;5065068;28;20208;-87
2023/12/16 09:52:42;;;;;;;6.73;5.87;;;;;;;8.50;79.25;97752.50;5071655;28;20810;-87
2023/12/16 09:55:09;;;;;;;9.83;8.60;;;;;;;8.71;79.08;97739.84;5065519;28;20209;-87
2023/12/16 09:57:37;;;;;;;6.70;6.07;;;;;;;8.58;77.24;97696.28;5045651;28;20209;-87
2023/12/16 10:00:12;;;;;;;6.23;5.63;;;;;;;8.54;76.78;97671.75;5051414;28;20201;-88
2023/12/16 10:02:39;;;;;;;6.63;5.40;;;;;;;8.62;77.24;97679.72;5052352;28;20203;-88
2023/12/16 10:05:07;;;;;;;6.43;5.60;;;;;;;8.47;76.29;97639.75;5052353;28;20659;-88
2023/12/16 10:07:34;;;;;;;6.90;5.33;;;;;;;8.34;76.41;97644.16;5051284;28;20542;-88
2023/12/16 10:10:01;;;;;;;5.97;5.40;;;;;;;8.31;76.84;97658.00;5039947;28;20198;-87
2023/12/16 10:12:34;;;;;;;6.37;5.27;;;;;;;8.15;76.12;97631.81;5032266;28;20202;-87
2023/12/16 10:15:00;;;;;;;5.90;5.30;;;;;;;8.26;76.73;97651.59;5047321;28;20194;-88
2023/12/16 10:17:28;;;;;;;7.17;5.20;;;;;;;8.50;76.71;97672.09;5051879;28;20206;-88
2023/12/16 10:19:54;;;;;;;14.17;11.57;;;;;;;8.80;76.18;97651.88;5051206;28;20236;-86
2023/12/16 10:22:21;;;;;;;7.77;6.40;;;;;;;9.13;74.71;97615.09;5053625;28;20255;-85
2023/12/16 10:24:49;;;;;;;5.50;5.00;;;;;;;9.21;72.86;97538.22;5053323;28;20571;-85
2023/12/16 10:27:16;;;;;;;5.27;4.77;;;;;;;9.23;72.64;97533.78;5052338;28;20186;-85
2023/12/16 10:29:42;;;;;;;4.60;4.20;;;;;;;9.35;71.64;97499.38;5050222;28;20225;-85
2023/12/16 10:32:10;;;;;;;5.00;4.50;;;;;;;9.56;71.51;97491.72;5053830;28;20213;-85
2023/12/16 10:34:37;;;;;;;4.67;4.17;;;;;;;9.77;70.22;97448.00;5065656;28;20223;-86
2023/12/16 10:37:05;;;;;;;3.97;3.63;;;;;;;10.04;69.34;97416.59;5065860;28;20205;-85
2023/12/16 10:39:32;;;;;;;6.20;4.17;;;;;;;10.23;69.06;97390.97;5063954;28;20232;-81
2023/12/16 10:42:00;;;;;;;4.90;4.40;;;;;;;10.30;67.66;97339.78;5045958;28;20232;-81
2023/12/16 10:44:27;;;;;;;3.70;3.40;;;;;;;10.46;67.99;97352.16;5041313;28;20204;-83
2023/12/16 10:46:55;;;;;;;2.83;2.63;;;;;;;10.55;67.09;97326.44;5064141;28;20202;-81
2023/12/16 10:49:28;;;;;;;2.70;2.50;;;;;;;10.40;65.69;97245.34;5064890;28;20278;-83
2023/12/16 10:52:03;;;;;;;3.17;2.60;;;;;;;10.46;65.87;97246.56;5079326;28;20197;-84
2023/12/16 10:54:37;;;;;;;2.80;2.57;;;;;;;10.54;65.86;97244.97;5077819;28;20498;-81
2023/12/16 10:57:16;;;;;;;2.80;2.60;;;;;;;10.44;66.08;97264.72;5068040;28;20258;-83
2023/12/16 10:59:49;;;;;;;4.50;2.53;;;;;;;10.39;66.26;97259.97;5079433;28;20236;-83
2023/12/16 11:02:22;;;;;;;4.80;4.30;;;;;;;10.19;64.96;97191.41;5070626;28;20236;-83
2023/12/16 11:04:52;;;;;;;3.30;3.00;;;;;;;10.03;64.98;97184.16;5049624;28;20217;-85
2023/12/16 11:07:22;;;;;;;3.53;2.70;;;;;;;9.93;68.91;97409.78;5034293;28;20259;-84
2023/12/16 11:09:49;;;;;;;3.10;2.80;;;;;;;10.05;66.18;97272.34;5053915;28;20226;-84
2023/12/16 11:12:19;;;;;;;3.77;3.10;;;;;;;10.24;65.78;97233.00;5053831;28;20193;-84
2023/12/16 11:14:47;;;;;;;3.10;2.77;;;;;;;10.29;65.28;97209.44;5053001;28;20204;-85
2023/12/16 11:17:20;;;;;;;3.43;3.13;;;;;;;10.46;64.06;97162.41;5056306;28;20217;-85
2023/12/16 11:19:56;;;;;;;3.33;3.03;;;;;;;10.56;63.83;97136.66;5014968;28;20654;-84
2023/12/16 11:22:24;;;;;;;2.83;2.63;;;;;;;10.57;62.96;97094.50;5054899;28;20588;-86
2023/12/16 11:24:52;;;;;;;3.47;3.17;;;;;;;10.48;63.70;97098.69;5053620;28;20205;-84
2023/12/16 11:27:20;;;;;;;3.40;3.10;;;;;;;10.59;63.49;97100.28;5055689;28;20202;-83
2023/12/16 11:29:46;;;;;;;3.97;3.60;;;;;;;10.29;64.19;97116.75;5055241;28;20228;-84
2023/12/16 11:32:13;;;;;;;5.63;4.30;;;;;;;10.05;64.94;97153.97;5054968;28;20202;-85
2023/12/16 11:34:44;;;;;;;14.93;13.37;;;;;;;9.91;65.11;97159.50;5061398;28;20201;-85
2023/12/16 11:37:10;;;;;;;6.53;5.80;;;;;;;9.80;65.80;97202.56;5054953;28;20205;-84
2023/12/16 11:39:38;;;;;;;4.70;4.30;;;;;;;9.71;66.44;97229.88;5053668;28;20599;-85